Time,TemperatureF,DewpointF,PressureIn,WindDirection,WindDirectionDegrees,WindSpeedMPH,WindSpeedGustMPH,Humidity,HourlyPrecipIn,Conditions,Clouds,dailyrainin,SoftwareType,DateUTC
2013-02-03 00:11:00,8.0,-99.9,-100.00,SSW,208,5.0,10.0,-999,-99.99,,,-99.99,,2013-02-03 06:11:00,
2013-02-03 00:22:00,8.0,-99.9,-100.00,SSW,208,5.0,10.0,-999,-99.99,,,-99.99,,2013-02-03 06:22:00,
2013-02-03 00:32:00,8.0,-99.9,-100.00,SSW,208,5.0,10.0,-999,-99.99,,,-99.99,,2013-02-03 06:32:00,
2013-02-03 00:40:00,7.0,-99.9,-100.00,SSW,204,9.0,12.0,-999,-99.99,,,-99.99,,2013-02-03 06:40:00,
2013-02-03 01:11:00,7.0,-99.9,-100.00,SSW,204,9.0,12.0,-999,-99.99,,,-99.99,,2013-02-03 07:11:00,
2013-02-03 01:22:00,7.0,-99.9,-100.00,SSW,204,9.0,12.0,-999,-99.99,,,-99.99,,2013-02-03 07:22:00,
2013-02-03 01:32:00,7.0,-99.9,-100.00,SSW,204,9.0,12.0,-999,-99.99,,,-99.99,,2013-02-03 07:32:00,
2013-02-03 01:40:00,7.0,-99.9,-100.00,SW,214,9.0,14.0,-999,-99.99,,,-99.99,,2013-02-03 07:40:00,
2013-02-03 02:11:00,7.0,-99.9,-100.00,SW,214,9.0,14.0,-999,-99.99,,,-99.99,,2013-02-03 08:11:00,
2013-02-03 02:22:00,7.0,-99.9,-100.00,SW,214,9.0,14.0,-999,-99.99,,,-99.99,,2013-02-03 08:22:00,
2013-02-03 02:32:00,7.0,-99.9,-100.00,SW,214,9.0,14.0,-999,-99.99,,,-99.99,,2013-02-03 08:32:00,
2013-02-03 02:40:00,8.0,-99.9,-100.00,SW,215,8.0,16.0,-999,-99.99,,,-99.99,,2013-02-03 08:40:00,
2013-02-03 03:11:00,8.0,-99.9,-100.00,SW,215,8.0,16.0,-999,-99.99,,,-99.99,,2013-02-03 09:11:00,
2013-02-03 03:22:00,8.0,-99.9,-100.00,SW,215,8.0,16.0,-999,-99.99,,,-99.99,,2013-02-03 09:22:00,
2013-02-03 03:32:00,8.0,-99.9,-100.00,SW,215,8.0,16.0,-999,-99.99,,,-99.99,,2013-02-03 09:32:00,
2013-02-03 03:40:00,8.0,-99.9,-100.00,WSW,254,6.0,16.0,-999,-99.99,,,-99.99,,2013-02-03 09:40:00,
2013-02-03 04:11:00,8.0,-99.9,-100.00,WSW,254,6.0,16.0,-999,-99.99,,,-99.99,,2013-02-03 10:11:00,
2013-02-03 04:22:00,8.0,-99.9,-100.00,WSW,254,6.0,16.0,-999,-99.99,,,-99.99,,2013-02-03 10:22:00,
2013-02-03 04:32:00,8.0,-99.9,-100.00,WSW,254,6.0,16.0,-999,-99.99,,,-99.99,,2013-02-03 10:32:00,
2013-02-03 04:40:00,8.0,-99.9,-100.00,SSW,212,8.0,12.0,-999,-99.99,,,-99.99,,2013-02-03 10:40:00,
2013-02-03 05:11:00,8.0,-99.9,-100.00,SSW,212,8.0,12.0,-999,-99.99,,,-99.99,,2013-02-03 11:11:00,
2013-02-03 05:22:00,8.0,-99.9,-100.00,SSW,212,8.0,12.0,-999,-99.99,,,-99.99,,2013-02-03 11:22:00,
2013-02-03 05:32:00,8.0,-99.9,-100.00,SSW,212,8.0,12.0,-999,-99.99,,,-99.99,,2013-02-03 11:32:00,
2013-02-03 05:40:00,9.0,-99.9,-100.00,WSW,238,12.0,17.0,-999,-99.99,,,-99.99,,2013-02-03 11:40:00,
2013-02-03 06:12:00,9.0,-99.9,-100.00,WSW,238,12.0,17.0,-999,-99.99,,,-99.99,,2013-02-03 12:12:00,
2013-02-03 06:22:00,9.0,-99.9,-100.00,WSW,238,12.0,17.0,-999,-99.99,,,-99.99,,2013-02-03 12:22:00,
2013-02-03 06:33:00,9.0,-99.9,-100.00,WSW,238,12.0,17.0,-999,-99.99,,,-99.99,,2013-02-03 12:33:00,
2013-02-03 06:40:00,9.0,-99.9,-100.00,WSW,249,6.0,15.0,-999,-99.99,,,-99.99,,2013-02-03 12:40:00,
2013-02-03 07:12:00,9.0,-99.9,-100.00,WSW,249,6.0,15.0,-999,-99.99,,,-99.99,,2013-02-03 13:12:00,
2013-02-03 07:22:00,9.0,-99.9,-100.00,WSW,249,6.0,15.0,-999,-99.99,,,-99.99,,2013-02-03 13:22:00,
2013-02-03 07:32:00,9.0,-99.9,-100.00,WSW,249,6.0,15.0,-999,-99.99,,,-99.99,,2013-02-03 13:32:00,
2013-02-03 07:40:00,10.0,-99.9,-100.00,West,274,10.0,15.0,-999,-99.99,,,-99.99,,2013-02-03 13:40:00,
2013-02-03 08:12:00,10.0,-99.9,-100.00,West,274,10.0,15.0,-999,-99.99,,,-99.99,,2013-02-03 14:12:00,
2013-02-03 08:22:00,10.0,-99.9,-100.00,West,274,10.0,15.0,-999,-99.99,,,-99.99,,2013-02-03 14:22:00,
2013-02-03 08:32:00,10.0,-99.9,-100.00,West,274,10.0,15.0,-999,-99.99,,,-99.99,,2013-02-03 14:32:00,
2013-02-03 08:53:00,10.0,-99.9,-100.00,WNW,282,10.0,29.0,-999,-99.99,,,-99.99,,2013-02-03 14:53:00,
2013-02-03 09:03:00,10.0,-99.9,-100.00,WNW,282,10.0,29.0,-999,-99.99,,,-99.99,,2013-02-03 15:03:00,
2013-02-03 09:12:00,10.0,-99.9,-100.00,WNW,301,17.0,25.0,-999,-99.99,,,-99.99,,2013-02-03 15:12:00,
2013-02-03 09:23:00,10.0,-99.9,-100.00,WNW,301,17.0,25.0,-999,-99.99,,,-99.99,,2013-02-03 15:23:00,
2013-02-03 09:33:00,10.0,-99.9,-100.00,WNW,282,10.0,29.0,-999,-99.99,,,-99.99,,2013-02-03 15:33:00,
2013-02-03 09:40:00,8.0,-99.9,-100.00,West,278,11.0,17.0,-999,-99.99,,,-99.99,,2013-02-03 15:40:00,
2013-02-03 09:42:00,10.0,-99.9,-100.00,WNW,282,10.0,29.0,-999,-99.99,,,-99.99,,2013-02-03 15:42:00,
2013-02-03 09:52:00,10.0,-99.9,-100.00,WNW,282,10.0,29.0,-999,-99.99,,,-99.99,,2013-02-03 15:52:00,
2013-02-03 10:03:00,10.0,-99.9,-100.00,WNW,282,10.0,29.0,-999,-99.99,,,-99.99,,2013-02-03 16:03:00,
2013-02-03 10:12:00,8.0,-99.9,-100.00,West,278,11.0,17.0,-999,-99.99,,,-99.99,,2013-02-03 16:12:00,
2013-02-03 10:22:00,8.0,-99.9,-100.00,West,278,11.0,17.0,-999,-99.99,,,-99.99,,2013-02-03 16:22:00,
2013-02-03 10:33:00,8.0,-99.9,-100.00,West,278,11.0,17.0,-999,-99.99,,,-99.99,,2013-02-03 16:33:00,
2013-02-03 10:40:00,8.0,-99.9,-100.00,WNW,284,14.0,18.0,-999,-99.99,,,-99.99,,2013-02-03 16:40:00,
2013-02-03 11:12:00,8.0,-99.9,-100.00,WNW,284,14.0,18.0,-999,-99.99,,,-99.99,,2013-02-03 17:12:00,
2013-02-03 11:22:00,8.0,-99.9,-100.00,WNW,284,14.0,18.0,-999,-99.99,,,-99.99,,2013-02-03 17:22:00,
2013-02-03 11:32:00,8.0,-99.9,-100.00,WNW,284,14.0,18.0,-999,-99.99,,,-99.99,,2013-02-03 17:32:00,
2013-02-03 11:40:00,9.0,-99.9,-100.00,WNW,294,12.0,22.0,-999,-99.99,,,-99.99,,2013-02-03 17:40:00,
2013-02-03 12:12:00,9.0,-99.9,-100.00,WNW,294,12.0,22.0,-999,-99.99,,,-99.99,,2013-02-03 18:12:00,
2013-02-03 12:23:00,9.0,-99.9,-100.00,WNW,294,12.0,22.0,-999,-99.99,,,-99.99,,2013-02-03 18:23:00,
2013-02-03 12:33:00,9.0,-99.9,-100.00,WNW,294,12.0,22.0,-999,-99.99,,,-99.99,,2013-02-03 18:33:00,
2013-02-03 12:40:00,9.0,-99.9,-100.00,WSW,258,7.0,16.0,-999,-99.99,,,-99.99,,2013-02-03 18:40:00,
2013-02-03 13:11:00,9.0,-99.9,-100.00,WSW,258,7.0,16.0,-999,-99.99,,,-99.99,,2013-02-03 19:11:00,
2013-02-03 13:22:00,9.0,-99.9,-100.00,WSW,258,7.0,16.0,-999,-99.99,,,-99.99,,2013-02-03 19:22:00,
2013-02-03 13:33:00,9.0,-99.9,-100.00,WSW,258,7.0,16.0,-999,-99.99,,,-99.99,,2013-02-03 19:33:00,
2013-02-03 13:40:00,14.0,-99.9,-100.00,WNW,288,8.0,14.0,-999,-99.99,,,-99.99,,2013-02-03 19:40:00,
2013-02-03 14:12:00,14.0,-99.9,-100.00,WNW,288,8.0,14.0,-999,-99.99,,,-99.99,,2013-02-03 20:12:00,
2013-02-03 14:22:00,14.0,-99.9,-100.00,WNW,288,8.0,14.0,-999,-99.99,,,-99.99,,2013-02-03 20:22:00,
2013-02-03 14:33:00,14.0,-99.9,-100.00,WNW,288,8.0,14.0,-999,-99.99,,,-99.99,,2013-02-03 20:33:00,
2013-02-03 14:40:00,13.0,-99.9,-100.00,WNW,286,7.0,12.0,-999,-99.99,,,-99.99,,2013-02-03 20:40:00,
2013-02-03 15:11:00,13.0,-99.9,-100.00,WNW,286,7.0,12.0,-999,-99.99,,,-99.99,,2013-02-03 21:11:00,
2013-02-03 15:22:00,13.0,-99.9,-100.00,WNW,286,7.0,12.0,-999,-99.99,,,-99.99,,2013-02-03 21:22:00,
2013-02-03 15:33:00,13.0,-99.9,-100.00,WNW,286,7.0,12.0,-999,-99.99,,,-99.99,,2013-02-03 21:33:00,
2013-02-03 15:40:00,13.0,-99.9,-100.00,West,281,7.0,14.0,-999,-99.99,,,-99.99,,2013-02-03 21:40:00,
2013-02-03 16:11:00,13.0,-99.9,-100.00,West,281,7.0,14.0,-999,-99.99,,,-99.99,,2013-02-03 22:11:00,
2013-02-03 16:22:00,13.0,-99.9,-100.00,West,281,7.0,14.0,-999,-99.99,,,-99.99,,2013-02-03 22:22:00,
2013-02-03 16:32:00,13.0,-99.9,-100.00,West,281,7.0,14.0,-999,-99.99,,,-99.99,,2013-02-03 22:32:00,
2013-02-03 16:40:00,10.0,-99.9,-100.00,West,260,6.0,11.0,-999,-99.99,,,-99.99,,2013-02-03 22:40:00,
2013-02-03 17:12:00,10.0,-99.9,-100.00,West,260,6.0,11.0,-999,-99.99,,,-99.99,,2013-02-03 23:12:00,
2013-02-03 17:22:00,10.0,-99.9,-100.00,West,260,6.0,11.0,-999,-99.99,,,-99.99,,2013-02-03 23:22:00,
2013-02-03 17:33:00,10.0,-99.9,-100.00,West,260,6.0,11.0,-999,-99.99,,,-99.99,,2013-02-03 23:33:00,
2013-02-03 17:40:00,5.0,-99.9,-100.00,SSW,206,4.0,6.0,-999,-99.99,,,-99.99,,2013-02-03 23:40:00,
2013-02-03 18:11:00,5.0,-99.9,-100.00,SSW,206,4.0,6.0,-999,-99.99,,,-99.99,,2013-02-04 00:11:00,
2013-02-03 18:22:00,5.0,-99.9,-100.00,SSW,206,4.0,6.0,-999,-99.99,,,-99.99,,2013-02-04 00:22:00,
2013-02-03 18:32:00,5.0,-99.9,-100.00,SSW,206,4.0,6.0,-999,-99.99,,,-99.99,,2013-02-04 00:32:00,
2013-02-03 18:40:00,1.0,-99.9,-100.00,SSW,208,6.0,7.0,-999,-99.99,,,-99.99,,2013-02-04 00:40:00,
2013-02-03 19:11:00,1.0,-99.9,-100.00,SSW,208,6.0,7.0,-999,-99.99,,,-99.99,,2013-02-04 01:11:00,
2013-02-03 19:22:00,1.0,-99.9,-100.00,SSW,208,6.0,7.0,-999,-99.99,,,-99.99,,2013-02-04 01:22:00,
2013-02-03 19:32:00,1.0,-99.9,-100.00,SSW,208,6.0,7.0,-999,-99.99,,,-99.99,,2013-02-04 01:32:00,
2013-02-03 21:40:00,-2.0,-99.9,-100.00,SSW,195,6.0,9.0,-999,-99.99,,,-99.99,,2013-02-04 03:40:00,
2013-02-03 22:11:00,-2.0,-99.9,-100.00,SSW,195,6.0,9.0,-999,-99.99,,,-99.99,,2013-02-04 04:11:00,
2013-02-03 22:22:00,-2.0,-99.9,-100.00,SSW,195,6.0,9.0,-999,-99.99,,,-99.99,,2013-02-04 04:22:00,
2013-02-03 22:40:00,-2.0,-99.9,-100.00,South,181,5.0,7.0,-999,-99.99,,,-99.99,,2013-02-04 04:40:00,
2013-02-03 23:12:00,-2.0,-99.9,-100.00,South,181,5.0,7.0,-999,-99.99,,,-99.99,,2013-02-04 05:12:00,
2013-02-03 23:22:00,-2.0,-99.9,-100.00,South,181,5.0,7.0,-999,-99.99,,,-99.99,,2013-02-04 05:22:00,
2013-02-03 23:33:00,-2.0,-99.9,-100.00,South,181,5.0,7.0,-999,-99.99,,,-99.99,,2013-02-04 05:33:00,
2013-02-03 23:40:00,-3.0,-99.9,-100.00,South,188,5.0,6.0,-999,-99.99,,,-99.99,,2013-02-04 05:40:00,